Ana Sayfa
METAR-TAF:

METAR-TAF

Havaalanları :

Georgetown Municipal Airport

Georgetown, Teksas, Amerika Birleşik Devletleri

Enlem: 30-41N, Boylam: 097-41W, yükseklik: 240 m

Güncel hava durumu gözlemi

Rapor saat 05:56 UTC de 44 dakika önce yapıldı.
Rüzgar kuzey/kuzeydoğudan 4 kt
Sıcaklık 24°C
Nem 61%
Basınç 1020 hPa
Görüş mesafesi: 16.1 km
7500 ft yükseklikte çok bulutlu

METAR: KGTU 240556Z AUTO 02004KT 10SM OVC075 24/16 A3012 RMK AO2 SLP192 T02390161 10311 20233 403330233 51005

Saat: 01:40 (06:40 UTC)


TAF: eksik

4.000'den fazla havaalanı için hava durumu gözlemleri ve tahminleri (METAR ve TAF raporları).

Kullanılabilir istasyonlar harita üzerinde sarı ve kırmızı noktalarla gösterilir.

İstasyonun adını görmek için fareyi noktanın üzerinde gezdirin.

Sonrasında hava gözlem ve tahminlerini görmek için tıklayın.

Haritayı değiştirmek için: yaklaştırmak için siyah artı işaretli yeşil düğmeye ve uzaklaştırmak için de eksi işaretli düğmeye hızla tıklayın; bitişik haritalar için yeşil okları kullanın.


METAR-TAF: